createdAt,value
2022-12-23T00:01:34.470Z,95304.90
2022-12-23T00:04:02.711Z,95300.91
2022-12-23T00:06:31.012Z,95295.86
2022-12-23T00:09:00.176Z,95298.31
2022-12-23T00:11:29.339Z,95299.71
2022-12-23T00:14:21.110Z,95296.85
2022-12-23T00:16:51.276Z,95295.73
2022-12-23T00:19:19.852Z,95296.84
2022-12-23T00:21:48.832Z,95296.86
2022-12-23T00:24:17.460Z,95297.19
2022-12-23T00:26:45.815Z,95292.08
2022-12-23T00:29:14.010Z,95299.27
2022-12-23T00:31:42.485Z,95302.48
2022-12-23T00:34:12.176Z,95302.75
2022-12-23T00:36:41.055Z,95301.87
2022-12-23T00:39:31.374Z,95298.91
2022-12-23T00:42:18.172Z,95300.15
2022-12-23T00:44:46.353Z,95295.84
2022-12-23T00:47:34.755Z,95299.00
2022-12-23T00:50:02.875Z,95298.21
2022-12-23T00:52:31.258Z,95286.77
2022-12-23T00:54:59.387Z,95281.10
2022-12-23T00:57:27.506Z,95276.81
2022-12-23T00:59:55.741Z,95274.45
2022-12-23T01:02:42.921Z,95267.08
2022-12-23T01:05:29.865Z,95264.63
2022-12-23T01:07:58.098Z,95266.86
2022-12-23T01:10:26.397Z,95265.02
2022-12-23T01:12:54.965Z,95261.86
2022-12-23T01:15:23.956Z,95249.86
2022-12-23T01:17:51.988Z,95245.79
2022-12-23T01:20:20.806Z,95243.31
2022-12-23T01:22:48.944Z,95246.48
2022-12-23T01:25:17.800Z,95254.89
2022-12-23T01:27:45.965Z,95260.15
2022-12-23T01:30:14.565Z,95255.05
2022-12-23T01:32:42.746Z,95248.91
2022-12-23T01:35:11.018Z,95256.07
2022-12-23T01:37:39.297Z,95258.74
2022-12-23T01:40:09.349Z,95254.81
2022-12-23T01:42:43.723Z,95254.75
2022-12-23T01:45:16.837Z,95253.67
2022-12-23T01:47:51.565Z,95250.52
2022-12-23T01:50:27.902Z,95252.11
2022-12-23T01:53:22.414Z,95252.35
2022-12-23T01:55:55.930Z,95256.33
2022-12-23T01:58:39.394Z,95259.52
2022-12-23T02:01:27.479Z,95258.32
2022-12-23T02:03:59.722Z,95256.19
2022-12-23T02:06:52.312Z,95258.55
2022-12-23T02:09:30.515Z,95256.23
2022-12-23T02:12:29.833Z,95252.11
2022-12-23T02:15:50.805Z,95251.18
2022-12-23T02:18:34.543Z,95251.70
2022-12-23T02:21:24.785Z,95247.52
2022-12-23T02:24:08.712Z,95254.02
2022-12-23T02:27:09.963Z,95254.29
2022-12-23T02:29:47.254Z,95258.36
2022-12-23T02:32:27.789Z,95260.39
2022-12-23T02:35:05.385Z,95259.80
2022-12-23T02:37:40.708Z,95265.61
2022-12-23T02:40:38.757Z,95272.91
2022-12-23T02:43:44.716Z,95266.88
2022-12-23T02:46:32.973Z,95263.77
2022-12-23T02:49:04.701Z,95254.98
2022-12-23T02:51:41.681Z,95254.70
2022-12-23T02:54:16.033Z,95263.44
2022-12-23T02:56:50.682Z,95270.96
2022-12-23T02:59:23.350Z,95275.50
2022-12-23T03:01:54.219Z,95280.19
2022-12-23T03:04:22.544Z,95286.27
2022-12-23T03:06:53.998Z,95287.94
2022-12-23T03:09:43.254Z,95285.58
2022-12-23T03:12:24.143Z,95282.66
2022-12-23T03:15:11.045Z,95274.15
2022-12-23T03:17:49.178Z,95268.26
2022-12-23T03:20:29.249Z,95263.42
2022-12-23T03:23:26.467Z,95254.71
2022-12-23T03:26:03.714Z,95250.56
2022-12-23T03:28:40.255Z,95247.87
2022-12-23T03:31:13.379Z,95253.11
2022-12-23T03:33:46.704Z,95255.09
2022-12-23T03:36:22.480Z,95253.46
2022-12-23T03:38:53.882Z,95254.63
2022-12-23T03:41:29.121Z,95259.63
2022-12-23T03:44:03.120Z,95264.43
2022-12-23T03:46:52.839Z,95266.52
2022-12-23T03:49:31.058Z,95265.63
2022-12-23T03:52:04.492Z,95264.23
2022-12-23T03:54:48.611Z,95259.08
2022-12-23T03:57:20.394Z,95246.53
2022-12-23T03:59:53.516Z,95244.55
2022-12-23T04:03:10.905Z,95247.86
2022-12-23T04:05:49.736Z,95246.78
2022-12-23T04:08:30.176Z,95247.42
2022-12-23T04:10:59.595Z,95247.79
2022-12-23T04:13:29.103Z,95251.89
2022-12-23T04:16:01.988Z,95246.73
2022-12-23T04:18:30.468Z,95249.30
2022-12-23T04:20:59.691Z,95245.20
2022-12-23T04:23:27.843Z,95238.84
2022-12-23T04:25:56.851Z,95236.80
2022-12-23T04:28:25.161Z,95230.48
2022-12-23T04:30:53.391Z,95227.56
2022-12-23T04:33:21.652Z,95223.89
2022-12-23T04:35:49.766Z,95228.96
2022-12-23T04:38:17.923Z,95237.23
2022-12-23T04:40:47.426Z,95245.56
2022-12-23T04:43:15.630Z,95251.66
2022-12-23T04:45:43.838Z,95249.60
2022-12-23T04:48:12.073Z,95248.21
2022-12-23T04:50:40.747Z,95246.11
2022-12-23T04:53:09.225Z,95231.75
2022-12-23T04:55:37.514Z,95232.77
2022-12-23T04:58:05.796Z,95240.54
2022-12-23T05:00:39.223Z,95237.73
2022-12-23T05:03:08.335Z,95227.85
2022-12-23T05:05:36.689Z,95217.58
2022-12-23T05:08:06.020Z,95217.27
2022-12-23T05:10:34.242Z,95222.43
2022-12-23T05:13:02.526Z,95221.58
2022-12-23T05:15:33.213Z,95222.71
2022-12-23T05:18:01.744Z,95217.38
2022-12-23T05:20:30.025Z,95213.98
2022-12-23T05:22:58.401Z,95211.23
2022-12-23T05:25:27.186Z,95210.90
2022-12-23T05:27:55.707Z,95209.80
2022-12-23T05:30:24.048Z,95215.98
2022-12-23T05:32:56.835Z,95216.84
2022-12-23T05:35:26.959Z,95216.48
2022-12-23T05:37:55.075Z,95215.63
2022-12-23T05:40:23.885Z,95221.18
2022-12-23T05:42:56.773Z,95225.84
2022-12-23T05:45:25.174Z,95226.01
2022-12-23T05:47:53.548Z,95222.29
2022-12-23T05:50:21.869Z,95223.62
2022-12-23T05:52:50.756Z,95225.23
2022-12-23T05:55:19.326Z,95224.04
2022-12-23T05:57:47.837Z,95228.98
2022-12-23T06:00:16.904Z,95229.90
2022-12-23T06:02:51.765Z,95236.81
2022-12-23T06:05:22.636Z,95235.99
2022-12-23T06:07:50.853Z,95235.14
2022-12-23T06:10:19.203Z,95235.50
2022-12-23T06:12:47.626Z,95238.02
2022-12-23T06:15:16.214Z,95226.55
2022-12-23T06:17:45.239Z,95227.38
2022-12-23T06:20:19.968Z,95225.50
2022-12-23T06:22:49.435Z,95224.16
2022-12-23T06:25:17.707Z,95233.48
2022-12-23T06:27:47.034Z,95232.52
2022-12-23T06:30:15.602Z,95237.70
2022-12-23T06:32:43.916Z,95232.77
2022-12-23T06:35:12.771Z,95234.84
2022-12-23T06:37:40.923Z,95235.54
2022-12-23T06:40:09.997Z,95240.39
2022-12-23T06:42:38.523Z,95242.67
2022-12-23T06:45:08.546Z,95246.54
2022-12-23T06:47:37.567Z,95246.22
2022-12-23T06:50:06.855Z,95251.23
2022-12-23T06:52:35.091Z,95247.23
2022-12-23T06:55:03.909Z,95249.48
2022-12-23T06:57:32.085Z,95256.56
2022-12-23T07:00:00.321Z,95261.27
2022-12-23T07:02:28.590Z,95263.36
2022-12-23T07:04:57.022Z,95262.48
2022-12-23T07:07:25.224Z,95260.98
2022-12-23T07:09:53.382Z,95257.51
2022-12-23T07:12:21.696Z,95258.31
2022-12-23T07:14:49.833Z,95264.73
2022-12-23T07:17:18.111Z,95265.95
2022-12-23T07:19:46.615Z,95265.80
2022-12-23T07:22:14.973Z,95261.37
2022-12-23T07:24:43.677Z,95260.30
2022-12-23T07:27:13.728Z,95259.39
2022-12-23T07:29:42.101Z,95256.77
2022-12-23T07:32:10.342Z,95258.83
2022-12-23T07:34:38.615Z,95254.36
2022-12-23T07:37:06.997Z,95255.98
2022-12-23T07:39:35.406Z,95259.59
2022-12-23T07:42:33.834Z,95263.40
2022-12-23T07:44:52.079Z,95261.60
2022-12-23T07:47:20.587Z,95257.85
2022-12-23T07:49:48.622Z,95259.41
2022-12-23T07:52:18.477Z,95252.92
2022-12-23T07:54:48.696Z,95252.39
2022-12-23T07:57:18.204Z,95254.39
2022-12-23T07:59:46.694Z,95258.98
2022-12-23T08:02:15.086Z,95258.89
2022-12-23T08:04:46.356Z,95256.59
2022-12-23T08:07:15.014Z,95260.67
2022-12-23T08:09:43.466Z,95258.01
2022-12-23T08:12:11.500Z,95265.30
2022-12-23T08:14:39.837Z,95271.59
2022-12-23T08:17:08.535Z,95264.67
2022-12-23T08:19:37.550Z,95268.18
2022-12-23T08:22:06.519Z,95266.20
2022-12-23T08:24:34.823Z,95265.21
2022-12-23T08:27:02.979Z,95265.44
2022-12-23T08:29:35.923Z,95261.08
2022-12-23T08:32:04.897Z,95259.43
2022-12-23T08:34:33.235Z,95261.90
2022-12-23T08:37:02.440Z,95257.16
2022-12-23T08:39:30.664Z,95258.55
2022-12-23T08:41:59.201Z,95257.63
2022-12-23T08:44:28.221Z,95256.98
2022-12-23T08:46:56.501Z,95255.42
2022-12-23T08:49:24.637Z,95255.35
2022-12-23T08:51:52.845Z,95256.20
2022-12-23T08:54:21.104Z,95254.14
2022-12-23T08:56:49.681Z,95251.58
2022-12-23T08:59:19.854Z,95250.10
2022-12-23T09:01:48.857Z,95244.67
2022-12-23T09:04:17.590Z,95242.23
2022-12-23T09:06:45.877Z,95241.51
2022-12-23T09:09:16.310Z,95235.42
2022-12-23T09:11:44.726Z,95235.21
2022-12-23T09:14:12.851Z,95233.63
2022-12-23T09:16:41.331Z,95238.71
2022-12-23T09:19:09.843Z,95240.81
2022-12-23T09:21:38.095Z,95240.91
2022-12-23T09:24:06.785Z,95248.66
2022-12-23T09:26:34.869Z,95250.73
2022-12-23T09:29:04.472Z,95248.52
2022-12-23T09:31:37.083Z,95248.30
2022-12-23T09:34:06.435Z,95244.77
2022-12-23T09:36:34.744Z,95237.42
2022-12-23T09:39:03.023Z,95238.91
2022-12-23T09:41:39.617Z,95240.99
2022-12-23T09:44:29.465Z,95242.01
2022-12-23T09:47:02.416Z,95243.14
2022-12-23T09:49:30.855Z,95243.09
2022-12-23T09:52:03.933Z,95244.27
2022-12-23T09:54:46.130Z,95242.77
2022-12-23T09:57:23.424Z,95241.11
2022-12-23T09:59:57.843Z,95244.77
2022-12-23T10:02:53.630Z,95246.46
2022-12-23T10:05:35.504Z,95251.38
2022-12-23T10:08:13.268Z,95246.90
2022-12-23T10:10:53.010Z,95240.13
2022-12-23T10:13:36.137Z,95236.02
2022-12-23T10:16:09.776Z,95226.17
2022-12-23T10:18:48.047Z,95216.73
2022-12-23T10:21:22.481Z,95220.86
2022-12-23T10:23:54.059Z,95223.97
2022-12-23T10:26:36.795Z,95227.05
2022-12-23T10:29:19.602Z,95233.10
2022-12-23T10:32:11.706Z,95231.30
2022-12-23T10:35:01.114Z,95222.12
2022-12-23T10:37:49.144Z,95220.75
2022-12-23T10:40:31.458Z,95219.38
2022-12-23T10:43:15.025Z,95220.59
2022-12-23T10:45:52.485Z,95227.64
2022-12-23T10:48:42.447Z,95223.98
2022-12-23T10:51:23.199Z,95220.85
2022-12-23T10:53:55.524Z,95222.47
2022-12-23T10:56:25.223Z,95223.18
2022-12-23T10:58:57.040Z,95226.33
2022-12-23T11:01:27.711Z,95225.63
2022-12-23T11:04:16.422Z,95229.03
2022-12-23T11:06:55.875Z,95230.10
2022-12-23T11:09:48.307Z,95231.33
2022-12-23T11:12:22.040Z,95226.14
2022-12-23T11:14:51.906Z,95220.10
2022-12-23T11:17:29.965Z,95212.14
2022-12-23T11:20:10.677Z,95214.89
2022-12-23T11:22:55.509Z,95214.77
2022-12-23T11:25:33.041Z,95215.39
2022-12-23T11:28:11.563Z,95216.32
2022-12-23T11:30:50.382Z,95220.98
2022-12-23T11:33:27.561Z,95225.45
2022-12-23T11:36:14.311Z,95224.95
2022-12-23T11:38:53.092Z,95226.81
2022-12-23T11:41:29.861Z,95225.05
2022-12-23T11:44:06.834Z,95226.33
2022-12-23T11:46:35.828Z,95220.83
2022-12-23T11:49:11.474Z,95218.84
2022-12-23T11:51:41.207Z,95218.89
2022-12-23T11:54:17.237Z,95207.92
2022-12-23T11:56:51.220Z,95202.88
2022-12-23T11:59:38.606Z,95207.02
2022-12-23T12:02:24.236Z,95207.73
2022-12-23T12:05:18.557Z,95208.17
2022-12-23T12:07:49.019Z,95210.23
2022-12-23T12:10:28.872Z,95217.42
2022-12-23T12:13:02.859Z,95222.23
2022-12-23T12:15:37.793Z,95225.88
2022-12-23T12:18:09.893Z,95229.22
2022-12-23T12:20:43.457Z,95224.48
2022-12-23T12:23:15.829Z,95227.05
2022-12-23T12:25:47.182Z,95222.30
2022-12-23T12:28:31.433Z,95223.54
2022-12-23T12:31:03.679Z,95214.98
2022-12-23T12:33:42.974Z,95209.10
2022-12-23T12:36:41.540Z,95206.27
2022-12-23T12:39:21.312Z,95207.83
2022-12-23T12:42:00.139Z,95210.88
2022-12-23T12:44:43.845Z,95212.20
2022-12-23T12:47:56.015Z,95204.55
2022-12-23T12:50:31.397Z,95201.05
2022-12-23T12:53:06.587Z,95208.02
2022-12-23T12:55:42.462Z,95206.04
2022-12-23T12:58:21.367Z,95206.63
2022-12-23T13:01:04.300Z,95205.30
2022-12-23T13:03:42.860Z,95207.78
2022-12-23T13:07:00.293Z,95203.68
2022-12-23T13:09:42.399Z,95200.52
2022-12-23T13:12:14.971Z,95199.48
2022-12-23T13:14:55.952Z,95204.88
2022-12-23T13:17:36.202Z,95206.91
2022-12-23T13:20:22.727Z,95204.79
2022-12-23T13:23:14.895Z,95202.52
2022-12-23T13:25:58.618Z,95196.78
2022-12-23T13:29:00.075Z,95188.02
2022-12-23T13:31:44.508Z,95190.30
2022-12-23T13:34:24.989Z,95193.70
2022-12-23T13:37:29.176Z,95193.29
2022-12-23T13:40:06.666Z,95196.14
2022-12-23T13:42:40.693Z,95192.14
2022-12-23T13:45:16.813Z,95187.45
2022-12-23T13:47:51.194Z,95180.16
2022-12-23T13:51:00.220Z,95179.30
2022-12-23T13:54:02.289Z,95180.30
2022-12-23T13:56:59.605Z,95182.29
2022-12-23T13:59:41.981Z,95179.40
2022-12-23T14:02:35.377Z,95183.17
2022-12-23T14:05:09.309Z,95174.75
2022-12-23T14:07:45.056Z,95178.35
2022-12-23T14:10:23.218Z,95175.59
2022-12-23T14:12:57.750Z,95173.14
2022-12-23T14:15:45.152Z,95170.81
2022-12-23T14:18:28.440Z,95165.05
2022-12-23T14:21:41.564Z,95158.55
2022-12-23T14:24:24.674Z,95158.16
2022-12-23T14:27:05.155Z,95148.98
2022-12-23T14:29:48.431Z,95149.75
2022-12-23T14:32:22.280Z,95153.39
2022-12-23T14:35:06.588Z,95158.98
2022-12-23T14:37:36.314Z,95156.23
2022-12-23T14:40:39.703Z,95158.39
2022-12-23T14:43:23.685Z,95162.21
2022-12-23T14:45:59.568Z,95164.86
2022-12-23T14:48:34.147Z,95168.01
2022-12-23T14:51:22.589Z,95166.17
2022-12-23T14:53:59.881Z,95159.70
2022-12-23T14:57:03.222Z,95157.92
2022-12-23T15:00:00.446Z,95157.69
2022-12-23T15:02:37.562Z,95156.20
2022-12-23T15:05:07.142Z,95154.05
2022-12-23T15:07:36.782Z,95153.77
2022-12-23T15:10:26.526Z,95145.95
2022-12-23T15:13:03.143Z,95145.98
2022-12-23T15:15:31.469Z,95145.34
2022-12-23T15:18:06.022Z,95142.31
2022-12-23T15:20:35.455Z,95144.04
2022-12-23T15:23:35.943Z,95143.21
2022-12-23T15:26:04.825Z,95138.89
2022-12-23T15:28:41.384Z,95138.18
2022-12-23T15:31:43.360Z,95141.23
2022-12-23T15:34:26.395Z,95148.90
2022-12-23T15:36:55.519Z,95149.36
2022-12-23T15:39:35.951Z,95155.29
2022-12-23T15:42:05.357Z,95165.41
2022-12-23T15:44:39.736Z,95167.28
2022-12-23T15:47:30.272Z,95169.77
2022-12-23T15:49:59.906Z,95170.19
2022-12-23T15:52:30.673Z,95178.02
2022-12-23T15:55:11.296Z,95181.19
2022-12-23T15:57:49.955Z,95179.47
2022-12-23T16:00:29.065Z,95181.85
2022-12-23T16:03:01.083Z,95183.51
2022-12-23T16:05:33.059Z,95181.73
2022-12-23T16:08:13.542Z,95180.05
2022-12-23T16:10:44.510Z,95192.14
2022-12-23T16:13:20.630Z,95185.63
2022-12-23T16:15:48.992Z,95196.95
2022-12-23T16:18:22.425Z,95184.23
2022-12-23T16:21:15.034Z,95189.69
2022-12-23T16:23:52.468Z,95193.14
2022-12-23T16:26:25.350Z,95194.36
2022-12-23T16:28:59.472Z,95195.17
2022-12-23T16:31:29.386Z,95183.05
2022-12-23T16:33:58.995Z,95174.38
2022-12-23T16:36:27.205Z,95174.10
2022-12-23T16:39:00.788Z,95171.35
2022-12-23T16:41:29.156Z,95168.83
2022-12-23T16:43:58.209Z,95164.77
2022-12-23T16:46:27.185Z,95167.52
2022-12-23T16:49:01.298Z,95166.02
2022-12-23T16:51:34.273Z,95163.52
2022-12-23T16:54:02.664Z,95152.56
2022-12-23T16:56:37.458Z,95145.07
2022-12-23T16:59:06.355Z,95139.41
2022-12-23T17:01:40.127Z,95137.57
2022-12-23T17:04:08.955Z,95139.61
2022-12-23T17:06:37.956Z,95138.85
2022-12-23T17:09:09.236Z,95141.11
2022-12-23T17:11:47.607Z,95140.11
2022-12-23T17:14:19.605Z,95132.42
2022-12-23T17:16:48.740Z,95131.90
2022-12-23T17:19:23.392Z,95133.03
2022-12-23T17:22:02.061Z,95134.38
2022-12-23T17:24:30.306Z,95134.38
2022-12-23T17:26:59.015Z,95140.27
2022-12-23T17:29:27.298Z,95136.74
2022-12-23T17:31:55.676Z,95134.88
2022-12-23T17:34:25.263Z,95138.20
2022-12-23T17:36:53.640Z,95140.77
2022-12-23T17:39:22.627Z,95139.83
2022-12-23T17:41:51.318Z,95139.35
2022-12-23T17:44:20.535Z,95141.90
2022-12-23T17:46:48.811Z,95145.34
2022-12-23T17:49:17.079Z,95144.73
2022-12-23T17:51:45.351Z,95141.66
2022-12-23T17:54:23.172Z,95145.23
2022-12-23T17:56:52.174Z,95149.75
2022-12-23T17:59:21.945Z,95149.16
2022-12-23T18:01:50.497Z,95148.27
2022-12-23T18:04:18.870Z,95140.77
2022-12-23T18:06:47.242Z,95124.40
2022-12-23T18:09:16.937Z,95112.00
2022-12-23T18:11:47.802Z,95116.27
2022-12-23T18:14:20.449Z,95116.20
2022-12-23T18:16:49.332Z,95136.91
2022-12-23T18:19:21.443Z,95129.33
2022-12-23T18:21:50.635Z,95125.66
2022-12-23T18:24:19.014Z,95134.02
2022-12-23T18:26:47.853Z,95137.45
2022-12-23T18:29:16.056Z,95125.00
2022-12-23T18:31:51.481Z,95136.34
2022-12-23T18:34:21.097Z,95133.69
2022-12-23T18:36:52.105Z,95129.66
2022-12-23T18:39:21.256Z,95120.13
2022-12-23T18:41:49.573Z,95124.79
2022-12-23T18:44:20.787Z,95125.43
2022-12-23T18:46:50.364Z,95126.59
2022-12-23T18:49:19.372Z,95132.54
2022-12-23T18:51:47.767Z,95134.56
2022-12-23T18:54:17.169Z,95142.27
2022-12-23T18:56:45.678Z,95136.52
2022-12-23T18:59:27.429Z,95134.25
2022-12-23T19:01:59.462Z,95140.29
2022-12-23T19:04:27.709Z,95133.11
2022-12-23T19:06:56.968Z,95139.30
2022-12-23T19:09:25.895Z,95134.89
2022-12-23T19:11:54.879Z,95133.73
2022-12-23T19:14:23.499Z,95135.79
2022-12-23T19:16:55.731Z,95137.36
2022-12-23T19:19:24.210Z,95134.59
2022-12-23T19:21:53.150Z,95129.85
2022-12-23T19:24:21.274Z,95128.81
2022-12-23T19:26:49.981Z,95133.48
2022-12-23T19:29:20.630Z,95126.51
2022-12-23T19:31:48.714Z,95121.00
2022-12-23T19:34:17.152Z,95120.10
2022-12-23T19:36:45.577Z,95119.70
2022-12-23T19:39:16.822Z,95120.06
2022-12-23T19:41:46.095Z,95120.27
2022-12-23T19:44:15.019Z,95125.27
2022-12-23T19:46:43.481Z,95125.67
2022-12-23T19:49:17.743Z,95128.57
2022-12-23T19:51:48.734Z,95128.09
2022-12-23T19:54:18.866Z,95125.08
2022-12-23T19:56:51.532Z,95117.40
2022-12-23T19:59:20.869Z,95119.01
2022-12-23T20:01:49.479Z,95125.88
2022-12-23T20:04:17.763Z,95121.42
2022-12-23T20:06:46.401Z,95120.88
2022-12-23T20:09:14.654Z,95115.82
2022-12-23T20:11:46.290Z,95114.62
2022-12-23T20:14:17.685Z,95117.13
2022-12-23T20:16:46.048Z,95117.56
2022-12-23T20:19:14.837Z,95132.99
2022-12-23T20:21:45.591Z,95147.42
2022-12-23T20:24:15.196Z,95149.03
2022-12-23T20:26:43.562Z,95148.46
2022-12-23T20:29:12.470Z,95145.85
2022-12-23T20:31:41.208Z,95143.88
2022-12-23T20:34:16.553Z,95143.30
2022-12-23T20:36:45.030Z,95144.84
2022-12-23T20:39:14.234Z,95141.50
2022-12-23T20:41:42.750Z,95144.77
2022-12-23T20:46:59.241Z,95148.70
2022-12-23T20:49:28.167Z,95152.10
2022-12-23T20:51:56.446Z,95151.89
2022-12-23T20:54:30.001Z,95153.80
2022-12-23T20:57:02.498Z,95152.80
2022-12-23T20:59:30.807Z,95150.36
2022-12-23T21:01:59.561Z,95147.57
2022-12-23T21:04:28.281Z,95146.02
2022-12-23T21:06:56.562Z,95144.59
2022-12-23T21:09:24.655Z,95140.67
2022-12-23T21:11:53.021Z,95141.99
2022-12-23T21:14:23.189Z,95137.70
2022-12-23T21:16:51.702Z,95148.40
2022-12-23T21:19:22.671Z,95156.25
2022-12-23T21:21:52.390Z,95151.70
2022-12-23T21:24:21.196Z,95150.61
2022-12-23T21:26:56.004Z,95150.21
2022-12-23T21:29:26.262Z,95145.44
2022-12-23T21:31:55.880Z,95150.18
2022-12-23T21:34:24.618Z,95141.63
2022-12-23T21:36:53.158Z,95138.61
2022-12-23T21:39:21.513Z,95136.05
2022-12-23T21:41:51.706Z,95122.34
2022-12-23T21:44:20.389Z,95122.73
2022-12-23T21:46:51.152Z,95125.48
2022-12-23T21:49:20.555Z,95127.45
2022-12-23T21:51:49.096Z,95123.84
2022-12-23T21:54:17.602Z,95124.85
2022-12-23T21:56:45.779Z,95125.63
2022-12-23T21:59:15.039Z,95124.58
2022-12-23T22:01:44.045Z,95127.88
2022-12-23T22:04:13.275Z,95129.02
2022-12-23T22:06:44.410Z,95132.05
2022-12-23T22:09:17.796Z,95129.92
2022-12-23T22:11:47.993Z,95126.39
2022-12-23T22:14:19.237Z,95122.42
2022-12-23T22:16:47.665Z,95115.26
2022-12-23T22:19:16.566Z,95112.81
2022-12-23T22:21:44.719Z,95111.30
2022-12-23T22:24:13.226Z,95106.65
2022-12-23T22:26:42.132Z,95105.80
2022-12-23T22:29:11.625Z,95101.05
2022-12-23T22:31:45.066Z,95102.79
2022-12-23T22:34:16.833Z,95107.96
2022-12-23T22:36:45.837Z,95111.14
2022-12-23T22:39:20.122Z,95109.27
2022-12-23T22:41:53.116Z,95099.00
2022-12-23T22:44:22.071Z,95092.51
2022-12-23T22:46:50.538Z,95086.84
2022-12-23T22:49:19.040Z,95081.23
2022-12-23T22:51:47.527Z,95083.30
2022-12-23T22:54:15.670Z,95083.91
2022-12-23T22:56:46.136Z,95082.89
2022-12-23T22:59:23.734Z,95079.82
2022-12-23T23:01:53.559Z,95075.54
2022-12-23T23:04:21.840Z,95077.33
2022-12-23T23:06:50.617Z,95075.40
2022-12-23T23:09:21.077Z,95069.21
2022-12-23T23:11:50.373Z,95071.55
2022-12-23T23:14:20.041Z,95073.88
2022-12-23T23:16:48.712Z,95072.38
2022-12-23T23:19:20.738Z,95080.30
2022-12-23T23:21:49.316Z,95084.40
2022-12-23T23:24:17.825Z,95083.19
2022-12-23T23:26:46.150Z,95082.98
2022-12-23T23:29:14.841Z,95081.45
2022-12-23T23:31:44.185Z,95073.52
2022-12-23T23:34:13.448Z,95088.48
2022-12-23T23:36:42.120Z,95089.77
2022-12-23T23:39:14.238Z,95090.81
2022-12-23T23:41:43.004Z,95090.97
2022-12-23T23:44:12.493Z,95094.36
2022-12-23T23:46:41.095Z,95098.85
2022-12-23T23:49:09.762Z,95101.81
2022-12-23T23:51:38.693Z,95098.23
2022-12-23T23:54:08.783Z,95105.23
2022-12-23T23:56:39.243Z,95107.91
2022-12-23T23:59:09.156Z,95105.76
